Zzz...這個用戶太懶了,還沒開始好好編輯用戶頁面。
hsknslw
zh-N
此用戶的母語漢語
yue-3
呢個用戶可以用熟練粵語進行交流。
en-5
This user is able to contribute with a professional level of English .
la-3
Hic usor callidissima latinitate contribuere potis est.
es-3
Este usuario puede contribuir con un nivel avanzado de español.
wuu-hu-1
迭个用户个上海话只好淘淘浆糊
zh-er-5
這個用戶可以憑自個的勁建立 zh-er.wikipediar.orger
dog-1 此用戶會學狗叫,但是聽不懂狗叫聲...
Lang-0
此用戶無法解讀和正常使用任何語言
Nonsense這個用戶以廢話溝通。
PC-0
此用戶是电脑盲,甚至于连键盘和鼠标都不敢碰
Hanja characters.PNG這位用戶喜歡漢字書.svg
這個用戶支持捍衛粵語頂硬上!
这个用户认为自己写字超慢
THFC這個用戶是熱刺的球迷。
Global Warming icon - Noun Project 4963.svg此用戶關注全球变暖
Yellow flag waving.svg這個用戶是自由主義
Against cyberbullying.svg該用戶反對網絡欺凌

45px
此人讨厌高度超标的用户框
Baidu
該用戶反对
Uni Keleideng Logo.png这个用户是克莱登大学的校友、学生或老师。
Shanghai Metro AC05 Train near Baoshan Road Station.jpg這個用戶常以上海轨道交通代步。
Guangzhou Metro icon.svg
这位用户熟悉或经常搭乘
廣州地鐵
難吃這個用戶會煮黑暗料理
隸書“史”字.png這個用户研究歷史或對歷史很感興趣。
這位用戶喜歡看地圖
政治這個用戶非常關心政治
Phonetik.svg這個用戶對語言學感興趣。
WikiProject · Portal
Globe of letters.svg這個用戶喜歡學習語言
Thai.b747-400.hs-tgb.arp.jpg這個用戶是個航空迷
MiG-31 Foxhound.jpg這個用戶想開米格31
Banderas Málaga.jpg這個用戶喜歡旗幟
Balanceofpower.png這個用戶關注國際關係


Rickrolling QR code.png这个模板很危险,请不要扫描。
KJFK 051853Z 04011KT 1/2SM VCTS SN FZFG BKN003 OVC010 M02/M02 A3006 RMK AO2 这个用户能够解读原始航空例行天气报告(METAR)